Terminal Aerodrome Forecast
Issued by NWS

Home | Current Version | Previous Version | Text Only | Print | Product List | Glossary On
Versions: 1 2 3 4 5 6 7 8 9 10 11 12 13 14 15 16 17 18 19 20 21
000
FTUS45 KPSR 292300
TAFIPL
TAF
KIPL 292321Z 3000/3024 35005KT P6SM OVC120
     FM300400 VRB03KT P6SM VCSH SCT070 OVC100
     FM301000 VRB05KT 6SM -RA BR SCT030 OVC050
     FM301800 28005KT 6SM BR SCT030 BKN050=

USA.gov is the U.S. government's official web portal to all federal, state and local government web resources and services.